createdAt,value
2022-12-01T00:02:27.354Z,23.10
2022-12-01T00:04:55.654Z,25.17
2022-12-01T00:07:23.611Z,22.63
2022-12-01T00:10:09.173Z,28.10
2022-12-01T00:12:43.581Z,21.50
2022-12-01T00:15:11.881Z,20.90
2022-12-01T00:17:39.946Z,24.97
2022-12-01T00:20:08.927Z,23.73
2022-12-01T00:22:36.914Z,22.23
2022-12-01T00:25:05.439Z,19.73
2022-12-01T00:27:33.461Z,20.83
2022-12-01T00:30:02.850Z,25.27
2022-12-01T00:32:31.185Z,21.60
2022-12-01T00:34:59.122Z,24.83
2022-12-01T00:37:27.096Z,22.30
2022-12-01T00:39:55.071Z,23.50
2022-12-01T00:42:23.062Z,20.97
2022-12-01T00:44:50.993Z,26.33
2022-12-01T00:47:20.588Z,21.17
2022-12-01T00:49:48.746Z,20.93
2022-12-01T00:52:17.512Z,20.27
2022-12-01T00:54:45.466Z,23.50
2022-12-01T00:57:13.562Z,20.77
2022-12-01T00:59:41.520Z,21.13
2022-12-01T01:02:09.524Z,21.47
2022-12-01T01:04:38.822Z,19.57
2022-12-01T01:07:06.789Z,20.90
2022-12-01T01:09:34.698Z,21.57
2022-12-01T01:12:02.676Z,20.50
2022-12-01T01:14:30.621Z,19.97
2022-12-01T01:16:58.593Z,22.00
2022-12-01T01:19:26.603Z,24.57
2022-12-01T01:21:55.945Z,25.50
2022-12-01T01:24:23.859Z,22.60
2022-12-01T01:26:52.000Z,33.47
2022-12-01T01:29:19.904Z,25.00
2022-12-01T01:31:47.977Z,24.53
2022-12-01T01:34:15.878Z,27.30
2022-12-01T01:36:43.837Z,24.97
2022-12-01T01:39:13.152Z,22.97
2022-12-01T01:41:41.100Z,24.30
2022-12-01T01:44:42.235Z,22.93
2022-12-01T01:47:10.190Z,23.50
2022-12-01T01:49:38.110Z,25.50
2022-12-01T01:52:06.018Z,22.13
2022-12-01T01:54:37.250Z,25.40
2022-12-01T01:57:05.331Z,23.07
2022-12-01T01:59:34.434Z,26.23
2022-12-01T02:02:06.244Z,28.43
2022-12-01T02:04:34.268Z,23.57
2022-12-01T02:07:02.426Z,24.53
2022-12-01T02:09:30.358Z,28.10
2022-12-01T02:12:04.854Z,22.43
2022-12-01T02:14:43.675Z,22.67
2022-12-01T02:17:17.073Z,28.53
2022-12-01T02:19:55.054Z,22.53
2022-12-01T02:22:27.179Z,16.33
2022-12-01T02:25:24.362Z,17.87
2022-12-01T02:28:15.063Z,22.10
2022-12-01T02:30:45.160Z,19.73
2022-12-01T02:33:15.567Z,24.73
2022-12-01T02:35:46.251Z,18.13
2022-12-01T02:38:16.272Z,17.50
2022-12-01T02:40:46.860Z,22.70
2022-12-01T02:43:19.929Z,21.73
2022-12-01T02:45:50.505Z,23.97
2022-12-01T02:48:21.563Z,24.27
2022-12-01T02:50:49.616Z,38.87
2022-12-01T02:53:18.747Z,78.30
2022-12-01T02:55:50.724Z,55.73
2022-12-01T02:58:18.667Z,94.40
2022-12-01T03:00:54.879Z,89.23
2022-12-01T03:03:36.303Z,111.10
2022-12-01T03:06:08.519Z,70.60
2022-12-01T03:08:45.947Z,37.67
2022-12-01T03:11:27.292Z,42.33
2022-12-01T03:14:00.629Z,126.77
2022-12-01T03:16:32.655Z,45.77
2022-12-01T03:19:01.631Z,28.13
2022-12-01T03:21:31.686Z,41.33
2022-12-01T03:24:01.135Z,35.70
2022-12-01T03:26:30.774Z,46.03
2022-12-01T03:29:01.190Z,39.67
2022-12-01T03:31:32.233Z,47.27
2022-12-01T03:34:02.020Z,85.30
2022-12-01T03:36:31.031Z,69.03
2022-12-01T03:39:01.260Z,32.23
2022-12-01T03:41:31.008Z,51.50
2022-12-01T03:44:02.989Z,43.87
2022-12-01T03:46:38.112Z,40.20
2022-12-01T03:49:08.884Z,39.93
2022-12-01T03:51:43.339Z,52.17
2022-12-01T03:54:13.491Z,23.53
2022-12-01T03:56:44.412Z,20.97
2022-12-01T03:59:12.349Z,19.57
2022-12-01T04:01:41.633Z,33.63
2022-12-01T04:04:11.477Z,39.70
2022-12-01T04:06:39.687Z,68.33
2022-12-01T04:09:07.638Z,60.53
2022-12-01T04:11:53.088Z,68.30
2022-12-01T04:14:21.186Z,51.10
2022-12-01T04:16:50.454Z,67.27
2022-12-01T04:19:18.416Z,64.83
2022-12-01T04:21:46.392Z,86.27
2022-12-01T04:24:14.599Z,87.73
2022-12-01T04:26:43.523Z,92.00
2022-12-01T04:29:11.770Z,117.80
2022-12-01T04:31:39.824Z,85.50
2022-12-01T04:34:09.302Z,146.80
2022-12-01T04:36:37.330Z,107.20
2022-12-01T04:39:05.506Z,131.90
2022-12-01T04:41:33.461Z,90.30
2022-12-01T04:44:01.387Z,73.60
2022-12-01T04:46:29.352Z,71.90
2022-12-01T04:48:57.363Z,62.67
2022-12-01T04:51:26.722Z,86.87
2022-12-01T04:53:54.647Z,105.90
2022-12-01T04:56:22.593Z,46.03
2022-12-01T04:58:50.535Z,80.67
2022-12-01T05:01:19.110Z,97.97
2022-12-01T05:03:49.396Z,54.10
2022-12-01T05:06:18.971Z,47.10
2022-12-01T05:08:48.554Z,33.50
2022-12-01T05:11:16.543Z,34.03
2022-12-01T05:13:46.037Z,21.63
2022-12-01T05:16:15.085Z,30.43
2022-12-01T05:18:43.186Z,47.30
2022-12-01T05:21:10.767Z,36.47
2022-12-01T05:23:38.941Z,55.00
2022-12-01T05:26:09.339Z,56.90
2022-12-01T05:28:37.258Z,52.67
2022-12-01T05:31:05.227Z,41.33
2022-12-01T05:33:33.158Z,50.43
2022-12-01T05:36:01.177Z,65.77
2022-12-01T05:38:29.120Z,57.20
2022-12-01T05:40:57.179Z,65.83
2022-12-01T05:43:29.441Z,34.07
2022-12-01T05:45:57.881Z,74.73
2022-12-01T05:48:25.851Z,81.80
2022-12-01T05:50:53.745Z,34.97
2022-12-01T05:53:21.732Z,40.07
2022-12-01T05:55:53.019Z,27.97
2022-12-01T05:58:20.927Z,18.80
2022-12-01T06:00:50.317Z,17.27
2022-12-01T06:03:18.198Z,17.53
2022-12-01T06:05:46.141Z,24.40
2022-12-01T06:08:14.048Z,21.73
2022-12-01T06:10:42.840Z,24.93
2022-12-01T06:13:11.633Z,29.50
2022-12-01T06:15:40.406Z,37.10
2022-12-01T06:18:09.941Z,20.87
2022-12-01T06:20:38.124Z,21.93
2022-12-01T06:23:06.070Z,24.90
2022-12-01T06:25:34.012Z,14.60
2022-12-01T06:28:02.683Z,16.63
2022-12-01T06:30:30.610Z,22.77
2022-12-01T06:32:59.399Z,41.97
2022-12-01T06:35:28.879Z,16.17
2022-12-01T06:37:56.838Z,23.20
2022-12-01T06:40:25.482Z,17.43
2022-12-01T06:42:53.457Z,27.33
2022-12-01T06:45:21.400Z,14.77
2022-12-01T06:47:53.893Z,12.83
2022-12-01T06:50:22.945Z,14.40
2022-12-01T06:52:52.881Z,15.43
2022-12-01T06:55:20.902Z,15.10
2022-12-01T06:57:49.845Z,18.40
2022-12-01T07:00:19.095Z,17.67
2022-12-01T07:02:47.645Z,14.23
2022-12-01T07:05:15.838Z,13.57
2022-12-01T07:07:46.879Z,14.83
2022-12-01T07:10:16.186Z,15.20
2022-12-01T07:12:44.187Z,13.40
2022-12-01T07:15:12.461Z,13.87
2022-12-01T07:17:40.430Z,13.43
2022-12-01T07:20:10.456Z,16.53
2022-12-01T07:22:38.856Z,23.60
2022-12-01T07:25:08.126Z,15.73
2022-12-01T07:27:39.018Z,17.17
2022-12-01T07:30:08.484Z,14.00
2022-12-01T07:32:37.031Z,16.33
2022-12-01T07:35:05.347Z,14.80
2022-12-01T07:37:33.506Z,18.17
2022-12-01T07:40:01.429Z,14.57
2022-12-01T07:42:29.328Z,16.53
2022-12-01T07:44:58.740Z,15.40
2022-12-01T07:47:26.679Z,14.57
2022-12-01T07:49:54.619Z,18.30
2022-12-01T07:52:22.614Z,14.57
2022-12-01T07:54:50.528Z,20.47
2022-12-01T07:57:19.583Z,13.30
2022-12-01T07:59:47.788Z,13.43
2022-12-01T08:02:17.434Z,14.37
2022-12-01T08:04:45.418Z,15.87
2022-12-01T08:07:13.398Z,15.23
2022-12-01T08:09:41.432Z,16.07
2022-12-01T08:12:10.371Z,15.47
2022-12-01T08:14:38.321Z,19.00
2022-12-01T08:17:06.217Z,16.70
2022-12-01T08:19:35.549Z,15.73
2022-12-01T08:22:03.504Z,18.03
2022-12-01T08:24:31.471Z,14.90
2022-12-01T08:26:59.411Z,13.53
2022-12-01T08:29:27.297Z,14.63
2022-12-01T08:31:55.245Z,18.50
2022-12-01T08:34:23.180Z,17.83
2022-12-01T08:36:52.506Z,19.00
2022-12-01T08:39:20.684Z,26.63
2022-12-01T08:41:48.854Z,20.23
2022-12-01T08:44:16.843Z,14.33
2022-12-01T08:46:45.176Z,23.53
2022-12-01T08:49:13.276Z,14.40
2022-12-01T08:51:41.248Z,14.97
2022-12-01T08:54:11.126Z,14.77
2022-12-01T08:56:40.643Z,19.83
2022-12-01T08:59:08.826Z,14.37
2022-12-01T09:01:51.800Z,13.37
2022-12-01T09:04:20.341Z,15.23
2022-12-01T09:06:49.067Z,18.47
2022-12-01T09:09:19.338Z,13.93
2022-12-01T09:11:47.302Z,15.90
2022-12-01T09:14:15.717Z,15.20
2022-12-01T09:16:44.134Z,17.33
2022-12-01T09:19:13.340Z,15.93
2022-12-01T09:21:42.759Z,17.57
2022-12-01T09:24:11.561Z,16.20
2022-12-01T09:26:40.905Z,16.37
2022-12-01T09:29:10.062Z,20.33
2022-12-01T09:31:38.155Z,14.73
2022-12-01T09:34:07.440Z,14.80
2022-12-01T09:36:36.694Z,13.90
2022-12-01T09:39:04.791Z,12.83
2022-12-01T09:41:34.022Z,15.77
2022-12-01T09:44:06.186Z,16.03
2022-12-01T09:46:36.607Z,14.43
2022-12-01T09:49:04.952Z,14.43
2022-12-01T09:51:34.915Z,15.00
2022-12-01T09:54:02.900Z,15.03
2022-12-01T09:56:32.194Z,16.87
2022-12-01T09:59:01.025Z,19.30
2022-12-01T10:01:33.024Z,17.30
2022-12-01T10:04:03.738Z,13.30
2022-12-01T10:06:37.407Z,16.93
2022-12-01T10:09:08.933Z,13.83
2022-12-01T10:11:38.057Z,13.43
2022-12-01T10:14:07.102Z,18.20
2022-12-01T10:16:38.575Z,19.90
2022-12-01T10:19:09.481Z,16.57
2022-12-01T10:21:44.149Z,19.63
2022-12-01T10:24:30.859Z,21.57
2022-12-01T10:27:02.343Z,20.93
2022-12-01T10:29:35.540Z,27.40
2022-12-01T10:32:06.622Z,22.20
2022-12-01T10:34:35.444Z,23.00
2022-12-01T10:37:03.350Z,25.63
2022-12-01T10:39:32.474Z,24.57
2022-12-01T10:42:07.152Z,18.80
2022-12-01T10:44:35.771Z,25.03
2022-12-01T10:47:05.202Z,21.27
2022-12-01T10:49:37.647Z,21.13
2022-12-01T10:52:05.590Z,21.93
2022-12-01T10:54:34.420Z,23.43
2022-12-01T10:57:02.353Z,18.53
2022-12-01T10:59:33.586Z,21.03
2022-12-01T11:02:02.228Z,22.40
2022-12-01T11:04:45.414Z,15.33
2022-12-01T11:07:17.701Z,15.40
2022-12-01T11:09:46.614Z,16.17
2022-12-01T11:12:16.346Z,12.27
2022-12-01T11:14:46.087Z,12.07
2022-12-01T11:17:27.330Z,13.37
2022-12-01T11:19:56.700Z,22.33
2022-12-01T11:22:25.646Z,13.37
2022-12-01T11:25:01.497Z,11.17
2022-12-01T11:27:31.535Z,12.00
2022-12-01T11:30:02.769Z,20.87
2022-12-01T11:32:31.443Z,15.93
2022-12-01T11:35:01.650Z,13.10
2022-12-01T11:37:32.719Z,12.80
2022-12-01T11:40:10.375Z,11.57
2022-12-01T11:42:40.299Z,11.33
2022-12-01T11:45:18.246Z,13.13
2022-12-01T11:47:59.977Z,11.43
2022-12-01T11:50:31.087Z,12.57
2022-12-01T11:52:59.075Z,13.03
2022-12-01T11:55:27.821Z,14.23
2022-12-01T11:57:56.775Z,12.67
2022-12-01T12:00:26.390Z,11.67
2022-12-01T12:03:16.270Z,10.87
2022-12-01T12:05:57.557Z,11.93
2022-12-01T12:08:36.063Z,10.47
2022-12-01T12:11:09.025Z,12.43
2022-12-01T12:14:09.212Z,12.67
2022-12-01T12:16:45.868Z,17.63
2022-12-01T12:19:33.793Z,14.77
2022-12-01T12:22:21.394Z,13.40
2022-12-01T12:24:56.472Z,19.67
2022-12-01T12:27:28.674Z,15.00
2022-12-01T12:30:07.677Z,15.33
2022-12-01T12:32:50.456Z,11.23
2022-12-01T12:35:26.334Z,12.07
2022-12-01T12:38:03.015Z,10.83
2022-12-01T12:40:37.763Z,13.80
2022-12-01T12:43:24.119Z,13.43
2022-12-01T12:45:59.208Z,13.63
2022-12-01T12:48:41.683Z,12.90
2022-12-01T12:51:20.068Z,13.20
2022-12-01T12:53:52.655Z,10.53
2022-12-01T12:56:21.952Z,14.93
2022-12-01T12:58:56.057Z,12.15
2022-12-01T13:01:25.329Z,14.52
2022-12-01T13:03:56.611Z,10.68
2022-12-01T13:06:26.828Z,11.82
2022-12-01T13:08:59.147Z,11.95
2022-12-01T13:11:28.763Z,9.77
2022-12-01T13:13:58.799Z,11.88
2022-12-01T13:16:28.079Z,11.20
2022-12-01T13:18:59.844Z,11.15
2022-12-01T13:21:37.968Z,11.35
2022-12-01T13:24:08.291Z,14.15
2022-12-01T13:26:35.945Z,11.23
2022-12-01T13:29:05.921Z,12.40
2022-12-01T13:31:42.798Z,13.18
2022-12-01T13:34:23.617Z,12.30
2022-12-01T13:36:52.382Z,13.55
2022-12-01T13:39:22.797Z,11.27
2022-12-01T13:42:05.008Z,11.02
2022-12-01T13:44:36.087Z,12.85
2022-12-01T13:47:05.199Z,12.88
2022-12-01T13:49:39.918Z,14.52
2022-12-01T13:52:18.906Z,8.60
2022-12-01T13:55:03.402Z,12.07
2022-12-01T13:57:32.344Z,14.75
2022-12-01T14:00:23.511Z,14.73
2022-12-01T14:03:24.943Z,14.33
2022-12-01T14:05:57.088Z,16.30
2022-12-01T14:08:25.738Z,15.10
2022-12-01T14:10:56.269Z,13.67
2022-12-01T14:13:24.198Z,12.20
2022-12-01T14:15:55.568Z,18.80
2022-12-01T14:18:28.970Z,17.47
2022-12-01T14:20:56.920Z,10.23
2022-12-01T14:23:29.085Z,8.13
2022-12-01T14:26:17.979Z,12.87
2022-12-01T14:29:31.743Z,8.00
2022-12-01T14:32:26.507Z,8.90
2022-12-01T14:34:56.416Z,7.30
2022-12-01T14:37:26.129Z,7.87
2022-12-01T14:39:58.192Z,7.93
2022-12-01T14:42:48.894Z,8.80
2022-12-01T14:45:19.941Z,7.23
2022-12-01T14:47:50.998Z,10.23
2022-12-01T14:50:24.924Z,7.80
2022-12-01T14:52:54.752Z,8.27
2022-12-01T14:55:23.997Z,10.57
2022-12-01T14:57:54.562Z,11.47
2022-12-01T15:00:23.653Z,11.23
2022-12-01T15:02:55.082Z,13.13
2022-12-01T15:05:25.238Z,9.87
2022-12-01T15:07:58.853Z,11.77
2022-12-01T15:10:34.792Z,18.33
2022-12-01T15:13:18.181Z,11.80
2022-12-01T15:15:51.210Z,13.13
2022-12-01T15:18:22.828Z,18.93
2022-12-01T15:20:51.346Z,34.77
2022-12-01T15:23:19.267Z,28.57
2022-12-01T15:25:47.419Z,16.40
2022-12-01T15:28:18.702Z,15.03
2022-12-01T15:30:48.497Z,19.40
2022-12-01T15:33:25.500Z,18.93
2022-12-01T15:35:55.152Z,22.80
2022-12-01T15:38:24.875Z,15.10
2022-12-01T15:41:27.857Z,14.43
2022-12-01T15:43:42.159Z,18.50
2022-12-01T15:46:14.179Z,20.07
2022-12-01T15:48:42.164Z,21.63
2022-12-01T15:51:12.197Z,17.17
2022-12-01T15:53:42.751Z,19.33
2022-12-01T15:56:14.748Z,21.60
2022-12-01T15:58:45.108Z,20.93
2022-12-01T16:01:13.907Z,20.13
2022-12-01T16:03:53.451Z,33.83
2022-12-01T16:06:22.089Z,53.83
2022-12-01T16:08:56.280Z,49.43
2022-12-01T16:11:24.317Z,23.87
2022-12-01T16:14:00.878Z,28.10
2022-12-01T16:16:35.690Z,20.63
2022-12-01T16:19:05.696Z,18.30
2022-12-01T16:21:36.001Z,17.10
2022-12-01T16:24:05.130Z,13.83
2022-12-01T16:26:33.520Z,14.60
2022-12-01T16:29:02.864Z,13.90
2022-12-01T16:31:30.850Z,11.40
2022-12-01T16:34:13.935Z,14.87
2022-12-01T16:36:50.645Z,11.30
2022-12-01T16:39:18.935Z,14.27
2022-12-01T16:41:48.016Z,12.40
2022-12-01T16:44:32.637Z,15.53
2022-12-01T16:47:00.737Z,14.17
2022-12-01T16:49:28.684Z,14.97
2022-12-01T16:51:57.540Z,17.50
2022-12-01T16:54:28.377Z,14.20
2022-12-01T16:56:56.293Z,14.93
2022-12-01T16:59:25.627Z,15.93
2022-12-01T17:01:53.677Z,14.33
2022-12-01T17:04:21.702Z,15.93
2022-12-01T17:06:49.778Z,15.33
2022-12-01T17:09:17.730Z,17.33
2022-12-01T17:11:45.748Z,19.93
2022-12-01T17:14:13.673Z,16.80
2022-12-01T17:16:42.955Z,21.03
2022-12-01T17:19:10.873Z,18.40
2022-12-01T17:21:38.801Z,22.63
2022-12-01T17:24:07.440Z,23.37
2022-12-01T17:26:35.590Z,20.83
2022-12-01T17:29:03.489Z,19.07
2022-12-01T17:31:31.457Z,19.43
2022-12-01T17:34:00.815Z,21.37
2022-12-01T17:36:28.770Z,25.87
2022-12-01T17:38:58.662Z,23.73
2022-12-01T17:41:32.256Z,23.57
2022-12-01T17:44:00.199Z,25.17
2022-12-01T17:46:28.209Z,24.93
2022-12-01T17:48:56.240Z,25.83
2022-12-01T17:51:25.511Z,23.70
2022-12-01T17:53:54.123Z,26.53
2022-12-01T17:56:22.040Z,22.27
2022-12-01T17:58:50.567Z,24.43
2022-12-01T18:01:19.497Z,29.80
2022-12-01T18:03:47.529Z,37.13
2022-12-01T18:06:15.540Z,34.70
2022-12-01T18:08:44.950Z,30.60
2022-12-01T18:11:16.038Z,33.87
2022-12-01T18:13:44.919Z,31.87
2022-12-01T18:16:14.514Z,31.17
2022-12-01T18:18:42.628Z,31.13
2022-12-01T18:21:11.453Z,37.20
2022-12-01T18:23:39.384Z,31.23
2022-12-01T18:26:15.135Z,30.20
2022-12-01T18:28:43.607Z,34.80
2022-12-01T18:31:12.709Z,28.47
2022-12-01T18:33:41.450Z,33.17
2022-12-01T18:36:11.099Z,31.50
2022-12-01T18:38:39.177Z,35.03
2022-12-01T18:41:08.675Z,31.10
2022-12-01T18:43:37.481Z,34.57
2022-12-01T18:46:05.834Z,30.67
2022-12-01T18:48:33.854Z,30.83
2022-12-01T18:51:03.740Z,33.50
2022-12-01T18:53:31.745Z,32.40
2022-12-01T18:56:02.456Z,30.37
2022-12-01T18:58:31.880Z,36.20
2022-12-01T19:01:00.215Z,36.60
2022-12-01T19:03:30.026Z,38.87
2022-12-01T19:05:57.938Z,31.07
2022-12-01T19:08:25.880Z,31.83
2022-12-01T19:10:59.533Z,31.10
2022-12-01T19:13:27.458Z,49.57
2022-12-01T19:15:56.817Z,54.20
2022-12-01T19:18:24.785Z,32.10
2022-12-01T19:20:52.776Z,31.10
2022-12-01T19:23:20.800Z,26.93
2022-12-01T19:25:48.714Z,27.90
2022-12-01T19:28:16.717Z,24.30
2022-12-01T19:30:48.234Z,26.80
2022-12-01T19:33:17.844Z,32.20
2022-12-01T19:35:45.867Z,31.63
2022-12-01T19:38:14.202Z,35.00
2022-12-01T19:40:42.586Z,36.10
2022-12-01T19:43:10.493Z,38.47
2022-12-01T19:45:38.945Z,32.00
2022-12-01T19:48:07.433Z,31.23
2022-12-01T19:50:37.138Z,36.37
2022-12-01T19:53:05.111Z,35.90
2022-12-01T19:55:33.025Z,33.30
2022-12-01T19:58:00.935Z,32.60
2022-12-01T20:00:28.961Z,36.33
2022-12-01T20:02:57.812Z,33.10
2022-12-01T20:05:25.791Z,36.13
2022-12-01T20:07:55.119Z,44.83
2022-12-01T20:10:23.156Z,40.43
2022-12-01T20:12:51.553Z,47.03
2022-12-01T20:15:19.483Z,37.10
2022-12-01T20:17:47.695Z,39.70
2022-12-01T20:20:16.440Z,42.27
2022-12-01T20:22:44.390Z,41.13
2022-12-01T20:25:14.052Z,49.60
2022-12-01T20:27:42.539Z,44.03
2022-12-01T20:30:11.647Z,48.40
2022-12-01T20:32:39.768Z,58.33
2022-12-01T20:35:08.253Z,53.23
2022-12-01T20:37:36.220Z,46.67
2022-12-01T20:40:04.185Z,39.07
2022-12-01T20:42:33.555Z,37.33
2022-12-01T20:45:01.524Z,24.50
2022-12-01T20:47:30.688Z,23.13
2022-12-01T20:49:58.690Z,28.60
2022-12-01T20:52:26.638Z,25.57
2022-12-01T20:54:54.654Z,25.67
2022-12-01T20:57:22.554Z,26.87
2022-12-01T20:59:51.934Z,24.87
2022-12-01T21:02:19.952Z,26.53
2022-12-01T21:04:48.174Z,33.20
2022-12-01T21:07:16.281Z,30.77
2022-12-01T21:09:44.191Z,29.77
2022-12-01T21:12:31.224Z,29.30
2022-12-01T21:15:03.960Z,29.17
2022-12-01T21:17:34.429Z,24.87
2022-12-01T21:20:07.069Z,24.00
2022-12-01T21:22:35.020Z,23.63
2022-12-01T21:25:08.544Z,24.50
2022-12-01T21:27:36.546Z,19.20
2022-12-01T21:30:10.692Z,24.00
2022-12-01T21:32:44.034Z,23.43
2022-12-01T21:35:16.910Z,22.47
2022-12-01T21:37:44.955Z,21.13
2022-12-01T21:40:17.420Z,18.77
2022-12-01T21:42:45.347Z,23.40
2022-12-01T21:45:20.830Z,26.43
2022-12-01T21:47:48.746Z,25.77
2022-12-01T21:50:18.015Z,25.13
2022-12-01T21:52:46.019Z,22.73
2022-12-01T21:55:32.921Z,22.70
2022-12-01T21:58:00.869Z,20.00
2022-12-01T22:00:31.496Z,17.90
2022-12-01T22:03:21.076Z,15.87
2022-12-01T22:06:13.511Z,13.13
2022-12-01T22:08:39.084Z,13.23
2022-12-01T22:11:11.593Z,15.10
2022-12-01T22:13:41.598Z,23.07
2022-12-01T22:16:19.409Z,14.67
2022-12-01T22:18:48.877Z,19.77
2022-12-01T22:21:32.914Z,17.90
2022-12-01T22:24:24.278Z,14.87
2022-12-01T22:26:54.637Z,13.97
2022-12-01T22:29:27.646Z,11.33
2022-12-01T22:32:25.317Z,11.97
2022-12-01T22:34:54.820Z,11.87
2022-12-01T22:37:23.545Z,14.47
2022-12-01T22:39:52.962Z,13.03
2022-12-01T22:42:21.905Z,13.37
2022-12-01T22:44:50.032Z,12.77
2022-12-01T22:47:19.505Z,13.30
2022-12-01T22:49:47.442Z,15.17
2022-12-01T22:52:19.676Z,15.67
2022-12-01T22:54:49.143Z,13.93
2022-12-01T22:57:27.004Z,10.37
2022-12-01T22:59:54.988Z,13.47
2022-12-01T23:02:25.247Z,14.03
2022-12-01T23:04:54.638Z,15.37
2022-12-01T23:07:33.701Z,11.40
2022-12-01T23:10:12.458Z,13.20
2022-12-01T23:12:40.401Z,9.97
2022-12-01T23:15:28.253Z,10.93
2022-12-01T23:17:57.575Z,11.10
2022-12-01T23:20:31.167Z,14.20
2022-12-01T23:23:00.252Z,17.97
2022-12-01T23:25:28.531Z,12.50
2022-12-01T23:27:57.416Z,10.43
2022-12-01T23:30:25.362Z,11.13
2022-12-01T23:33:11.322Z,13.13
2022-12-01T23:35:40.991Z,40.77
2022-12-01T23:38:11.825Z,73.53
2022-12-01T23:40:39.785Z,45.00
2022-12-01T23:43:13.061Z,30.73
2022-12-01T23:45:40.954Z,45.20
2022-12-01T23:48:11.359Z,34.63
2022-12-01T23:50:39.282Z,17.67
2022-12-01T23:53:07.171Z,7.60
2022-12-01T23:55:35.103Z,10.53
2022-12-01T23:58:14.521Z,11.30
